createdAt,value
2023-12-02T06:03:44.722Z,94.99
2023-12-02T06:04:47.073Z,94.86
2023-12-02T06:05:49.206Z,94.85
2023-12-02T06:06:51.376Z,95.02
2023-12-02T06:07:53.419Z,94.53
2023-12-02T06:08:55.852Z,94.14
2023-12-02T06:09:57.844Z,94.08
2023-12-02T06:11:02.443Z,94.69
2023-12-02T06:12:04.713Z,94.19
2023-12-02T06:13:06.967Z,94.27
2023-12-02T06:14:09.077Z,94.77
2023-12-02T06:15:13.045Z,94.61
2023-12-02T06:16:15.296Z,94.10
2023-12-02T06:17:17.446Z,94.59
2023-12-02T06:18:19.960Z,94.18
2023-12-02T06:19:22.375Z,94.22
2023-12-02T06:20:27.866Z,94.53
2023-12-02T06:21:30.060Z,95.06
2023-12-02T06:22:33.070Z,94.34
2023-12-02T06:23:35.331Z,94.54
2023-12-02T06:24:38.165Z,94.73
2023-12-02T06:25:40.412Z,95.08
2023-12-02T06:26:42.469Z,94.20
2023-12-02T06:27:44.675Z,94.37
2023-12-02T06:28:50.952Z,94.48
2023-12-02T06:29:53.132Z,94.29
2023-12-02T06:30:55.163Z,94.42
2023-12-02T06:31:57.356Z,94.54
2023-12-02T06:32:59.414Z,94.29
2023-12-02T06:34:01.541Z,94.86
2023-12-02T06:35:03.645Z,93.95
2023-12-02T06:36:07.057Z,94.42
2023-12-02T06:37:09.064Z,94.68
2023-12-02T06:38:12.240Z,93.39
2023-12-02T06:39:14.498Z,94.48
2023-12-02T06:40:16.861Z,94.18
2023-12-02T06:41:18.824Z,93.67
2023-12-02T06:42:21.655Z,94.20
2023-12-02T06:43:23.818Z,94.90
2023-12-02T06:44:27.370Z,94.39
2023-12-02T06:45:29.612Z,94.79
2023-12-02T06:46:32.003Z,93.88
2023-12-02T06:47:34.183Z,94.48
2023-12-02T06:48:36.615Z,93.93
2023-12-02T06:49:38.673Z,93.90
2023-12-02T06:50:40.820Z,93.84
2023-12-02T06:51:42.970Z,93.90
2023-12-02T06:52:45.327Z,94.32
2023-12-02T06:53:48.116Z,93.40
2023-12-02T06:55:55.159Z,93.45
2023-12-02T06:56:57.243Z,92.65
2023-12-02T06:58:00.577Z,93.29
2023-12-02T06:59:02.955Z,92.76
2023-12-02T07:00:07.424Z,92.77
2023-12-02T07:01:09.943Z,92.38
2023-12-02T07:02:12.661Z,92.48
2023-12-02T07:03:14.768Z,92.81
2023-12-02T07:04:16.965Z,92.64
2023-12-02T07:05:19.173Z,92.13
2023-12-02T07:06:22.342Z,93.31
2023-12-02T07:07:24.488Z,92.36
2023-12-02T07:08:26.901Z,91.62
2023-12-02T07:09:29.055Z,92.92
2023-12-02T07:10:31.283Z,92.72
2023-12-02T07:11:33.398Z,93.27
2023-12-02T07:12:35.607Z,92.46
2023-12-02T07:13:37.783Z,93.04
2023-12-02T07:14:39.836Z,91.97
2023-12-02T07:15:42.322Z,92.20
2023-12-02T07:16:44.451Z,92.44
2023-12-02T07:17:46.662Z,92.49
2023-12-02T07:18:48.833Z,93.19
2023-12-02T07:19:51.214Z,92.24
2023-12-02T07:20:53.256Z,91.78
2023-12-02T07:21:55.380Z,92.21
2023-12-02T07:22:57.652Z,91.15
2023-12-02T07:23:59.877Z,90.96
2023-12-02T07:25:01.913Z,90.66
2023-12-02T07:26:04.190Z,91.04
2023-12-02T07:27:06.463Z,90.45
2023-12-02T07:28:08.796Z,90.64
2023-12-02T07:29:11.097Z,90.05
2023-12-02T07:31:18.465Z,90.74
2023-12-02T07:32:20.797Z,90.26
2023-12-02T07:33:24.352Z,90.96
2023-12-02T07:34:26.686Z,91.34
2023-12-02T07:35:28.717Z,90.94
2023-12-02T07:36:30.792Z,90.43
2023-12-02T07:37:33.126Z,89.80
2023-12-02T07:38:35.267Z,90.29
2023-12-02T07:39:37.577Z,89.46
2023-12-02T07:40:40.050Z,90.38
2023-12-02T07:41:43.865Z,90.25
2023-12-02T07:42:46.239Z,90.07
2023-12-02T07:43:48.336Z,89.40
2023-12-02T07:44:50.688Z,89.38
2023-12-02T07:45:53.055Z,89.67
2023-12-02T07:46:55.121Z,89.61
2023-12-02T07:47:57.443Z,89.06
2023-12-02T07:48:59.646Z,88.99
2023-12-02T07:50:01.747Z,88.71
2023-12-02T07:51:07.642Z,88.45
2023-12-02T07:52:09.791Z,88.33
2023-12-02T07:53:12.021Z,88.88
2023-12-02T07:54:14.065Z,88.58
2023-12-02T07:55:16.581Z,89.07
2023-12-02T07:56:18.808Z,88.92
2023-12-02T07:57:20.918Z,88.49
2023-12-02T07:58:22.977Z,88.23
2023-12-02T07:59:25.068Z,87.92
2023-12-02T08:00:27.611Z,88.99
2023-12-02T08:01:29.736Z,87.84
2023-12-02T08:02:31.970Z,88.12
2023-12-02T08:03:34.704Z,87.91
2023-12-02T08:04:36.774Z,88.37
2023-12-02T08:06:43.746Z,87.88
2023-12-02T08:07:47.526Z,87.67
2023-12-02T08:08:50.349Z,87.25
2023-12-02T08:09:53.381Z,87.71
2023-12-02T08:10:56.950Z,88.07
2023-12-02T08:11:59.308Z,87.23
2023-12-02T08:13:01.287Z,86.83
2023-12-02T08:14:03.427Z,87.60
2023-12-02T08:15:07.219Z,87.71
2023-12-02T08:16:10.369Z,87.18
2023-12-02T08:17:12.484Z,86.95
2023-12-02T08:18:14.722Z,87.12
2023-12-02T08:19:18.023Z,86.96
2023-12-02T08:20:20.320Z,86.52
2023-12-02T08:21:22.455Z,87.09
2023-12-02T08:22:56.629Z,87.38
2023-12-02T08:24:07.449Z,86.75
2023-12-02T08:25:09.781Z,86.62
2023-12-02T08:28:59.344Z,86.59
2023-12-02T08:30:01.837Z,86.82
2023-12-02T08:31:29.305Z,86.69
2023-12-02T08:35:37.927Z,86.61
2023-12-02T08:41:13.612Z,85.62
2023-12-02T08:43:46.618Z,86.24
2023-12-02T08:45:05.879Z,85.90
2023-12-02T08:47:38.282Z,85.86
2023-12-02T08:48:40.591Z,85.62
2023-12-02T08:49:42.718Z,86.78
2023-12-02T08:52:09.838Z,86.31
2023-12-02T08:54:38.010Z,85.80
2023-12-02T08:55:40.278Z,85.68
2023-12-02T08:59:30.299Z,85.20
2023-12-02T09:00:33.165Z,85.19
2023-12-02T09:01:35.556Z,85.40
2023-12-02T09:02:37.857Z,85.67
2023-12-02T09:03:40.050Z,85.42
2023-12-02T09:04:42.263Z,85.68
2023-12-02T09:05:44.902Z,86.34
2023-12-02T09:06:47.175Z,86.38
2023-12-02T09:07:49.741Z,85.03
2023-12-02T09:08:55.106Z,85.52
2023-12-02T09:09:57.371Z,86.32
2023-12-02T09:10:59.747Z,85.92
2023-12-02T09:12:01.907Z,84.93
2023-12-02T09:13:25.436Z,85.28
2023-12-02T09:14:27.973Z,85.51
2023-12-02T09:15:41.290Z,85.81
2023-12-02T09:16:48.320Z,85.76
2023-12-02T09:18:11.626Z,85.59
2023-12-02T09:19:28.989Z,85.90
2023-12-02T09:20:40.524Z,85.91
2023-12-02T09:21:46.106Z,85.26
2023-12-02T09:22:48.946Z,85.34
2023-12-02T09:23:52.393Z,85.38
2023-12-02T09:24:54.622Z,86.14
2023-12-02T09:26:23.052Z,86.15
2023-12-02T09:27:54.349Z,86.76
2023-12-02T09:28:57.147Z,86.10
2023-12-02T09:29:59.197Z,86.63
2023-12-02T09:31:10.824Z,86.29
2023-12-02T09:32:26.608Z,86.73
2023-12-02T09:33:29.638Z,86.04
2023-12-02T09:34:59.937Z,85.84
2023-12-02T09:36:03.861Z,86.20
2023-12-02T09:37:05.871Z,86.06
2023-12-02T09:38:08.218Z,86.50
2023-12-02T09:39:11.361Z,87.10
2023-12-02T09:40:22.639Z,86.64
2023-12-02T09:41:32.972Z,86.60
2023-12-02T09:42:36.016Z,86.73
2023-12-02T09:43:46.922Z,86.99
2023-12-02T09:45:00.385Z,87.25
2023-12-02T09:46:31.068Z,86.78
2023-12-02T09:47:41.661Z,86.97
2023-12-02T09:49:14.710Z,86.02
2023-12-02T09:50:24.463Z,86.18
2023-12-02T09:52:03.779Z,86.28
2023-12-02T09:53:22.905Z,86.70
2023-12-02T09:54:48.048Z,87.20
2023-12-02T09:55:55.419Z,86.57
2023-12-02T09:57:06.669Z,87.27
2023-12-02T09:58:25.808Z,86.51
2023-12-02T09:59:28.173Z,86.84
2023-12-02T10:00:58.138Z,86.42
2023-12-02T10:02:11.625Z,86.56
2023-12-02T10:04:06.136Z,87.18
2023-12-02T10:05:13.622Z,86.97
2023-12-02T10:06:34.030Z,87.27
2023-12-02T10:08:04.930Z,87.75
2023-12-02T10:09:31.557Z,87.52
2023-12-02T10:10:55.003Z,87.57
2023-12-02T10:12:31.917Z,86.75
2023-12-02T10:13:54.898Z,86.78
2023-12-02T10:15:02.926Z,87.23
2023-12-02T10:16:14.085Z,87.19
2023-12-02T10:17:18.166Z,87.94
2023-12-02T10:18:24.227Z,87.81
2023-12-02T10:19:52.220Z,87.62
2023-12-02T10:21:00.886Z,88.29
2023-12-02T10:22:05.159Z,87.98
2023-12-02T10:23:30.141Z,88.10
2023-12-02T10:24:53.957Z,88.53
2023-12-02T10:26:04.949Z,88.26
2023-12-02T10:27:13.125Z,88.22
2023-12-02T10:28:25.717Z,88.14
2023-12-02T10:29:38.039Z,88.70
2023-12-02T10:30:47.446Z,87.66
2023-12-02T10:32:20.858Z,88.11
2023-12-02T10:33:27.565Z,88.24
2023-12-02T10:34:43.772Z,88.09
2023-12-02T10:35:48.922Z,88.45
2023-12-02T10:36:55.104Z,87.33
2023-12-02T10:38:15.293Z,86.60
2023-12-02T10:39:30.369Z,87.95
2023-12-02T10:40:33.794Z,88.34
2023-12-02T10:41:42.312Z,88.00
2023-12-02T10:42:59.189Z,88.29
2023-12-02T10:44:05.602Z,86.67
2023-12-02T10:45:10.100Z,87.35
2023-12-02T10:46:13.080Z,86.67
2023-12-02T10:47:17.416Z,85.56
2023-12-02T10:48:23.335Z,86.80
2023-12-02T10:49:26.287Z,86.67
2023-12-02T10:50:29.779Z,86.76
2023-12-02T10:51:35.011Z,86.97
2023-12-02T10:52:40.832Z,86.44
2023-12-02T10:53:44.787Z,87.23
2023-12-02T10:54:50.990Z,86.34
2023-12-02T10:56:00.629Z,86.55
2023-12-02T10:57:08.176Z,87.04
2023-12-02T10:58:10.707Z,86.73
2023-12-02T10:59:13.696Z,87.43
2023-12-02T11:00:47.788Z,87.00
2023-12-02T11:02:02.091Z,86.80
2023-12-02T11:03:23.289Z,86.79
2023-12-02T11:06:09.748Z,86.85
2023-12-02T11:07:16.029Z,85.87
2023-12-02T11:08:29.877Z,86.42
2023-12-02T11:09:49.173Z,86.53
2023-12-02T11:11:00.064Z,86.35
2023-12-02T11:12:11.278Z,85.99
2023-12-02T11:13:16.682Z,86.68
2023-12-02T11:14:19.575Z,86.58
2023-12-02T11:15:25.641Z,87.11
2023-12-02T11:16:39.808Z,87.10
2023-12-02T11:18:04.576Z,86.22
2023-12-02T11:19:29.056Z,86.10
2023-12-02T11:21:02.882Z,86.87
2023-12-02T11:22:05.154Z,87.79
2023-12-02T11:23:31.309Z,87.69
2023-12-02T11:25:10.691Z,87.03
2023-12-02T11:26:21.586Z,86.63
2023-12-02T11:27:54.704Z,87.49
2023-12-02T11:29:18.321Z,87.16
2023-12-02T11:30:43.251Z,87.02
2023-12-02T11:32:04.281Z,87.49
2023-12-02T11:33:32.218Z,87.96
2023-12-02T11:35:01.473Z,87.65
2023-12-02T11:36:03.682Z,87.48
2023-12-02T11:37:24.281Z,87.54
2023-12-02T11:38:32.306Z,87.29
2023-12-02T11:39:46.509Z,87.84
2023-12-02T11:41:06.680Z,87.46
2023-12-02T11:42:19.014Z,87.07
2023-12-02T11:43:27.603Z,88.17
2023-12-02T11:44:35.669Z,88.18
2023-12-02T11:45:44.510Z,88.24
2023-12-02T11:47:00.210Z,87.76
2023-12-02T11:48:14.586Z,88.27
2023-12-02T11:49:38.019Z,88.20
2023-12-02T11:50:52.250Z,87.99
2023-12-02T11:52:22.913Z,87.94
2023-12-02T11:54:11.024Z,88.13
2023-12-02T11:55:18.110Z,88.32
2023-12-02T11:56:25.258Z,88.14
2023-12-02T11:57:38.259Z,88.54
2023-12-02T11:59:15.987Z,88.09
2023-12-02T12:00:34.089Z,87.67
2023-12-02T12:02:01.052Z,88.37
2023-12-02T12:03:47.953Z,87.87
2023-12-02T12:05:01.903Z,88.38
2023-12-02T12:08:06.153Z,88.41
2023-12-02T12:11:55.646Z,89.11
2023-12-02T12:13:01.385Z,88.78
2023-12-02T12:15:34.633Z,87.85
2023-12-02T12:21:07.852Z,88.16
2023-12-02T12:24:57.532Z,87.89
2023-12-02T12:27:24.900Z,88.17
2023-12-02T12:30:12.212Z,88.09
2023-12-02T12:31:46.617Z,88.47
2023-12-02T12:36:22.992Z,87.55
2023-12-02T12:37:50.329Z,87.71
2023-12-02T12:41:49.292Z,87.55
2023-12-02T12:42:51.677Z,86.54
2023-12-02T12:48:36.427Z,87.18
2023-12-02T12:50:17.376Z,87.54
2023-12-02T12:51:45.253Z,87.26
2023-12-02T12:55:54.789Z,87.15
2023-12-02T13:02:42.932Z,87.33
2023-12-02T13:03:52.398Z,88.13
2023-12-02T13:05:22.969Z,88.09
2023-12-02T13:06:48.507Z,87.78
2023-12-02T13:08:09.705Z,88.81
2023-12-02T13:09:13.504Z,88.28
2023-12-02T13:10:16.627Z,88.08
2023-12-02T13:11:28.369Z,88.67
2023-12-02T13:12:35.721Z,87.90
2023-12-02T13:13:41.553Z,88.56
2023-12-02T13:14:49.481Z,89.09
2023-12-02T13:15:53.872Z,88.86
2023-12-02T13:16:57.217Z,88.34
2023-12-02T13:18:00.840Z,89.22
2023-12-02T13:19:03.664Z,89.11
2023-12-02T13:20:06.577Z,89.18
2023-12-02T13:21:09.248Z,88.88
2023-12-02T13:22:14.618Z,88.79
2023-12-02T13:23:22.114Z,88.92
2023-12-02T13:24:25.446Z,88.34
2023-12-02T13:25:30.859Z,88.75
2023-12-02T13:26:35.290Z,88.78
2023-12-02T13:27:40.776Z,89.42
2023-12-02T13:28:44.372Z,88.72
2023-12-02T13:29:50.834Z,89.21
2023-12-02T13:30:55.792Z,89.40
2023-12-02T13:31:58.434Z,89.45
2023-12-02T13:33:21.908Z,88.99
2023-12-02T13:34:37.122Z,88.54
2023-12-02T13:35:43.745Z,89.22
2023-12-02T13:36:51.515Z,88.65
2023-12-02T13:38:14.082Z,88.79
2023-12-02T13:39:19.407Z,88.60
2023-12-02T13:40:28.132Z,89.54
2023-12-02T13:41:47.731Z,89.41
2023-12-02T13:42:51.427Z,89.58
2023-12-02T13:43:54.773Z,89.46
2023-12-02T13:45:10.212Z,89.56
2023-12-02T13:46:16.748Z,89.56
2023-12-02T13:47:29.917Z,89.86
2023-12-02T13:49:09.195Z,90.02
2023-12-02T13:50:14.363Z,90.33
2023-12-02T13:51:29.547Z,89.82
2023-12-02T13:53:00.709Z,90.53
2023-12-02T13:54:08.959Z,90.21
2023-12-02T13:55:48.146Z,90.34
2023-12-02T13:56:59.298Z,89.55
2023-12-02T13:58:13.555Z,90.33
2023-12-02T13:59:28.838Z,89.94
2023-12-02T14:00:40.492Z,89.92
2023-12-02T14:02:06.045Z,89.67
2023-12-02T14:03:43.759Z,89.75
2023-12-02T14:05:07.769Z,89.38
2023-12-02T14:07:48.690Z,89.57
2023-12-02T14:09:00.750Z,89.13
2023-12-02T14:10:07.473Z,89.16
2023-12-02T14:11:26.979Z,89.04
2023-12-02T14:29:21.947Z,87.13
2023-12-02T14:34:02.424Z,87.15
2023-12-02T14:35:17.081Z,87.17
2023-12-02T14:36:39.571Z,87.14
2023-12-02T14:38:13.926Z,86.97
2023-12-02T14:39:55.998Z,86.88
2023-12-02T14:41:35.698Z,86.72
2023-12-02T14:42:58.940Z,86.83
2023-12-02T14:44:00.882Z,87.22
2023-12-02T14:45:03.405Z,86.82
2023-12-02T14:46:06.908Z,86.44
2023-12-02T14:47:12.661Z,86.31
2023-12-02T14:48:17.563Z,86.36
2023-12-02T14:49:20.840Z,86.71
2023-12-02T14:50:25.892Z,86.62
2023-12-02T14:51:35.600Z,86.47
2023-12-02T14:52:44.332Z,86.73
2023-12-02T14:53:46.650Z,87.28
2023-12-02T14:54:49.020Z,86.29
2023-12-02T14:55:51.117Z,86.94
2023-12-02T14:56:53.415Z,87.30
2023-12-02T14:58:22.141Z,87.01
2023-12-02T14:59:25.063Z,87.22
2023-12-02T15:00:27.770Z,85.86
2023-12-02T15:01:38.640Z,86.78
2023-12-02T15:02:51.749Z,86.92
2023-12-02T15:03:55.060Z,86.19
2023-12-02T15:04:57.482Z,86.35
2023-12-02T15:06:01.480Z,85.91
2023-12-02T15:07:05.257Z,86.18
2023-12-02T15:08:13.872Z,86.45
2023-12-02T15:09:28.575Z,86.61
2023-12-02T15:10:37.630Z,86.08
2023-12-02T15:11:44.408Z,85.83
2023-12-02T15:12:49.310Z,86.63
2023-12-02T15:13:52.435Z,86.79
2023-12-02T15:14:56.814Z,86.41
2023-12-02T15:15:59.783Z,86.49
2023-12-02T15:17:05.322Z,87.20
2023-12-02T15:18:09.640Z,86.81
2023-12-02T15:19:13.051Z,86.73
2023-12-02T15:20:16.397Z,86.39
2023-12-02T15:21:21.337Z,87.05
2023-12-02T15:22:23.455Z,86.74
2023-12-02T15:23:34.865Z,86.11
2023-12-02T15:24:37.647Z,86.16
2023-12-02T15:25:40.312Z,86.71
2023-12-02T15:26:43.266Z,86.36
2023-12-02T15:27:45.310Z,86.17
2023-12-02T15:28:51.604Z,86.29
2023-12-02T15:29:53.973Z,86.12
2023-12-02T15:30:58.767Z,86.01
2023-12-02T15:32:02.866Z,85.97
2023-12-02T15:33:04.889Z,86.49
2023-12-02T15:34:07.522Z,85.42
2023-12-02T15:35:11.631Z,85.97
2023-12-02T15:36:14.981Z,86.41
2023-12-02T15:37:17.738Z,85.75
2023-12-02T15:38:20.850Z,85.68
2023-12-02T15:39:23.787Z,85.61
2023-12-02T15:40:25.974Z,85.02
2023-12-02T15:41:28.406Z,86.44
2023-12-02T15:42:30.823Z,85.51
2023-12-02T15:43:33.173Z,85.60
2023-12-02T15:44:45.300Z,85.95
2023-12-02T15:45:47.457Z,85.69
2023-12-02T15:46:51.083Z,85.98
2023-12-02T15:47:53.366Z,85.28
2023-12-02T15:48:56.587Z,85.48
2023-12-02T15:49:59.074Z,84.99
2023-12-02T15:51:01.364Z,85.30
2023-12-02T15:52:06.396Z,85.07
2023-12-02T15:53:09.080Z,84.74
2023-12-02T15:54:16.579Z,85.45
2023-12-02T15:55:22.173Z,85.60
2023-12-02T15:56:25.859Z,85.44
2023-12-02T15:57:28.054Z,84.84
2023-12-02T15:58:32.418Z,84.94
2023-12-02T15:59:34.971Z,84.87
2023-12-02T16:00:38.319Z,84.57
2023-12-02T16:01:48.187Z,84.76
2023-12-02T16:02:50.324Z,84.98
2023-12-02T16:03:54.060Z,85.18
2023-12-02T16:04:56.137Z,84.43
2023-12-02T16:05:58.817Z,84.85
2023-12-02T16:07:01.413Z,85.25
2023-12-02T16:08:08.245Z,85.31
2023-12-02T16:09:10.443Z,85.01
2023-12-02T16:10:13.667Z,85.07
2023-12-02T16:11:16.249Z,85.38
2023-12-02T16:12:19.629Z,84.78
2023-12-02T16:13:23.276Z,84.38
2023-12-02T16:14:25.647Z,84.62
2023-12-02T16:15:32.026Z,84.60
2023-12-02T16:16:36.493Z,84.65
2023-12-02T16:17:39.734Z,85.11
2023-12-02T16:18:44.464Z,84.55
2023-12-02T16:19:48.848Z,84.41
2023-12-02T16:20:51.446Z,85.04
2023-12-02T16:21:55.180Z,84.47
2023-12-02T16:22:58.326Z,84.96
2023-12-02T16:24:01.351Z,84.73
2023-12-02T16:25:05.139Z,85.21
2023-12-02T16:26:08.888Z,84.46
2023-12-02T16:27:11.084Z,85.01
2023-12-02T16:28:13.143Z,84.88
2023-12-02T16:29:16.421Z,85.01
2023-12-02T16:30:23.074Z,84.26
2023-12-02T16:31:28.962Z,84.59
2023-12-02T16:32:32.131Z,84.71
2023-12-02T16:33:36.839Z,85.05
2023-12-02T16:34:42.449Z,85.14
2023-12-02T16:35:44.671Z,84.63
2023-12-02T16:36:49.803Z,84.30
2023-12-02T16:37:53.375Z,85.16
2023-12-02T16:38:55.846Z,85.45
2023-12-02T16:39:58.767Z,84.83
2023-12-02T16:41:00.865Z,84.78
2023-12-02T16:42:03.062Z,84.67
2023-12-02T16:43:05.212Z,84.68
2023-12-02T16:44:08.656Z,85.38
2023-12-02T16:45:19.409Z,85.21
2023-12-02T16:46:22.369Z,84.91
2023-12-02T16:47:56.689Z,85.20
2023-12-02T16:48:58.885Z,85.26
2023-12-02T16:50:01.439Z,84.44
2023-12-02T16:51:07.632Z,85.34
2023-12-02T16:52:15.143Z,85.38
2023-12-02T16:53:24.766Z,85.27
2023-12-02T16:54:33.287Z,85.57
2023-12-02T16:55:36.970Z,85.08
2023-12-02T16:56:39.251Z,85.19
2023-12-02T16:57:51.108Z,85.68
2023-12-02T16:58:53.103Z,85.04
2023-12-02T16:59:58.749Z,85.08
2023-12-02T17:01:03.389Z,85.23
2023-12-02T17:02:05.573Z,85.13
2023-12-02T17:03:09.099Z,85.37
2023-12-02T17:04:11.546Z,85.51
2023-12-02T17:05:28.869Z,85.31
2023-12-02T17:06:32.131Z,84.70
2023-12-02T17:07:34.217Z,85.06
2023-12-02T17:08:42.591Z,84.55
2023-12-02T17:09:46.078Z,84.79
2023-12-02T17:10:59.772Z,85.24
2023-12-02T17:12:02.101Z,85.25
2023-12-02T17:13:04.321Z,84.41
2023-12-02T17:14:11.703Z,84.68
2023-12-02T17:15:27.934Z,84.68
2023-12-02T17:16:35.624Z,84.57
2023-12-02T17:17:38.134Z,84.33
2023-12-02T17:18:40.277Z,84.80
2023-12-02T17:19:43.739Z,84.22
2023-12-02T17:20:45.788Z,84.88
2023-12-02T17:21:56.212Z,85.21
2023-12-02T17:22:58.215Z,84.33
2023-12-02T17:24:01.908Z,84.55
2023-12-02T17:25:21.575Z,85.18
2023-12-02T17:26:29.442Z,84.39
2023-12-02T17:27:40.805Z,85.34
2023-12-02T17:28:43.397Z,84.23
2023-12-02T17:29:45.404Z,84.80
2023-12-02T17:30:47.457Z,84.80
2023-12-02T17:31:49.837Z,84.61
2023-12-02T17:32:52.097Z,84.80
2023-12-02T17:33:54.174Z,85.26
2023-12-02T17:34:58.959Z,84.33
2023-12-02T17:36:01.848Z,84.67
2023-12-02T17:37:04.361Z,85.24
2023-12-02T17:38:06.437Z,84.50
2023-12-02T17:39:08.692Z,84.78
2023-12-02T17:40:11.332Z,85.02
2023-12-02T17:41:13.604Z,84.79
2023-12-02T17:42:16.416Z,84.96
2023-12-02T17:43:18.698Z,84.80
2023-12-02T17:44:21.236Z,84.52
2023-12-02T17:45:23.446Z,84.65
2023-12-02T17:46:28.232Z,85.02
2023-12-02T17:47:30.560Z,84.49
2023-12-02T17:48:32.718Z,84.70
2023-12-02T17:49:34.980Z,85.26
2023-12-02T17:50:37.082Z,85.20
2023-12-02T17:51:43.097Z,85.11
2023-12-02T17:52:45.743Z,85.21
2023-12-02T17:53:48.126Z,85.12
2023-12-02T17:54:50.390Z,84.95
2023-12-02T17:55:52.471Z,85.09
2023-12-02T17:56:54.646Z,85.46
2023-12-02T17:57:56.773Z,85.23
2023-12-02T17:58:58.963Z,84.43
2023-12-02T18:00:01.316Z,85.16
2023-12-02T18:01:03.426Z,84.70
2023-12-02T18:02:06.195Z,84.65
2023-12-02T18:03:08.324Z,84.02
2023-12-02T18:04:10.494Z,84.18
2023-12-02T18:05:12.692Z,84.49
2023-12-02T18:06:14.811Z,85.16
2023-12-02T18:07:16.838Z,84.88
2023-12-02T18:08:19.024Z,84.75
2023-12-02T18:09:21.695Z,84.22
2023-12-02T18:10:23.810Z,84.50
2023-12-02T18:11:25.844Z,84.76
2023-12-02T18:12:30.740Z,84.44
2023-12-02T18:13:32.997Z,84.44
2023-12-02T18:14:35.712Z,84.03
2023-12-02T18:15:38.732Z,84.28
2023-12-02T18:16:41.174Z,84.87
2023-12-02T18:17:43.199Z,84.19
2023-12-02T18:18:45.504Z,84.31
2023-12-02T18:19:47.823Z,84.25
2023-12-02T18:20:50.895Z,84.78
2023-12-02T18:21:52.959Z,84.81
2023-12-02T18:22:55.294Z,84.54
2023-12-02T18:23:59.038Z,84.78
2023-12-02T18:25:01.307Z,85.12
2023-12-02T18:26:03.445Z,84.41
2023-12-02T18:27:05.767Z,84.49
2023-12-02T18:28:07.816Z,84.95
2023-12-02T18:29:09.988Z,84.93
2023-12-02T18:30:12.867Z,84.61
2023-12-02T18:31:14.998Z,84.88
2023-12-02T18:32:17.173Z,84.71
2023-12-02T18:33:19.451Z,85.02
2023-12-02T18:34:21.808Z,85.33
2023-12-02T18:35:24.120Z,85.42
2023-12-02T18:36:26.219Z,84.91
2023-12-02T18:37:28.350Z,85.04
2023-12-02T18:38:30.745Z,84.96
2023-12-02T18:39:33.071Z,85.14
2023-12-02T18:40:36.831Z,84.69
2023-12-02T18:41:38.903Z,85.18
2023-12-02T18:42:40.975Z,84.95
2023-12-02T18:43:43.303Z,84.89
2023-12-02T18:44:45.430Z,84.58
2023-12-02T18:45:47.685Z,84.79
2023-12-02T18:46:49.748Z,85.46
2023-12-02T18:47:52.999Z,84.65
2023-12-02T18:48:55.199Z,85.65
2023-12-02T18:49:57.541Z,85.56
2023-12-02T18:50:59.513Z,85.64
2023-12-02T18:52:01.724Z,85.98
2023-12-02T18:53:03.714Z,85.74
2023-12-02T18:54:06.228Z,85.49
2023-12-02T18:55:08.503Z,85.21
2023-12-02T18:56:12.504Z,85.03
2023-12-02T18:57:14.865Z,85.41
2023-12-02T18:58:17.152Z,85.68
2023-12-02T18:59:19.256Z,84.59
2023-12-02T19:00:21.463Z,84.93
2023-12-02T19:01:23.902Z,85.05
2023-12-02T19:02:25.911Z,85.15
2023-12-02T19:03:28.152Z,84.42
2023-12-02T19:04:30.404Z,85.06
2023-12-02T19:05:32.599Z,84.60
2023-12-02T19:06:34.648Z,84.82
2023-12-02T19:07:37.114Z,84.36
2023-12-02T19:08:39.240Z,84.92
2023-12-02T19:09:41.484Z,84.76
2023-12-02T19:10:43.483Z,84.91
2023-12-02T19:11:45.582Z,85.17
2023-12-02T19:12:47.645Z,84.76
2023-12-02T19:13:49.711Z,84.41
2023-12-02T19:14:51.922Z,83.91
2023-12-02T19:15:54.180Z,84.75
2023-12-02T19:16:56.270Z,85.05
2023-12-02T19:17:58.427Z,84.70
2023-12-02T19:19:00.896Z,84.60
2023-12-02T19:20:04.443Z,84.58
2023-12-02T19:21:07.677Z,84.60
2023-12-02T19:22:10.236Z,84.36
2023-12-02T19:23:12.264Z,84.14
2023-12-02T19:24:15.490Z,84.42
2023-12-02T19:25:17.588Z,83.79
2023-12-02T19:26:19.876Z,83.74
2023-12-02T19:27:22.294Z,83.94
2023-12-02T19:28:24.718Z,83.40
2023-12-02T19:29:26.853Z,84.36
2023-12-02T19:30:29.090Z,84.02
2023-12-02T19:31:31.184Z,84.39
2023-12-02T19:32:34.104Z,84.16
2023-12-02T19:33:36.345Z,83.78
2023-12-02T19:34:38.720Z,83.86
2023-12-02T19:35:41.098Z,84.28
2023-12-02T19:36:43.242Z,84.08
2023-12-02T19:37:45.237Z,83.92
2023-12-02T19:38:47.408Z,83.81
2023-12-02T19:39:49.417Z,83.96
2023-12-02T19:40:51.561Z,84.44
2023-12-02T19:41:53.715Z,84.02
2023-12-02T19:42:56.109Z,83.82
2023-12-02T19:43:58.567Z,84.30
2023-12-02T19:45:00.767Z,84.35
2023-12-02T19:46:02.964Z,84.47
2023-12-02T19:47:06.206Z,83.86
2023-12-02T19:48:08.500Z,84.04
2023-12-02T19:49:11.736Z,84.23
2023-12-02T19:50:13.897Z,84.06
2023-12-02T19:51:16.431Z,84.49
2023-12-02T19:52:18.450Z,84.29
2023-12-02T19:53:21.553Z,83.98
2023-12-02T19:54:24.337Z,84.60
2023-12-02T19:55:26.441Z,84.02
2023-12-02T19:56:30.135Z,84.03
2023-12-02T19:57:32.465Z,84.10
2023-12-02T19:58:34.463Z,84.22
2023-12-02T19:59:36.513Z,83.79
2023-12-02T20:00:38.534Z,83.79
2023-12-02T20:01:40.778Z,84.25
2023-12-02T20:02:42.945Z,84.09
2023-12-02T20:03:45.416Z,84.34
2023-12-02T20:04:47.618Z,84.05
2023-12-02T20:05:49.908Z,83.54
2023-12-02T20:06:52.089Z,83.45
2023-12-02T20:07:55.016Z,83.95
2023-12-02T20:08:57.092Z,83.71
2023-12-02T20:09:59.357Z,83.47
2023-12-02T20:11:01.335Z,83.67
2023-12-02T20:12:05.043Z,83.72
2023-12-02T20:13:07.085Z,83.40
2023-12-02T20:14:09.488Z,84.03
2023-12-02T20:15:11.713Z,83.73
2023-12-02T20:16:14.030Z,84.21
2023-12-02T20:17:18.568Z,84.15
2023-12-02T20:18:20.831Z,84.38
2023-12-02T20:19:23.161Z,83.44
2023-12-02T20:20:25.258Z,83.70
2023-12-02T20:21:27.640Z,84.09
2023-12-02T20:22:29.830Z,84.83
2023-12-02T20:23:32.574Z,84.33
2023-12-02T20:24:35.137Z,84.38
2023-12-02T20:25:37.151Z,84.41
2023-12-02T20:26:39.713Z,84.48
2023-12-02T20:27:42.079Z,83.61
2023-12-02T20:28:44.309Z,83.81
2023-12-02T20:29:46.440Z,84.17
2023-12-02T20:30:48.743Z,83.71
2023-12-02T20:31:51.259Z,83.44
2023-12-02T20:32:53.381Z,83.64
2023-12-02T20:33:55.593Z,84.50
2023-12-02T20:34:57.927Z,83.86
2023-12-02T20:36:00.237Z,83.81
2023-12-02T20:37:02.432Z,84.05
2023-12-02T20:38:04.739Z,84.00
2023-12-02T20:39:09.758Z,84.30
2023-12-02T20:40:12.502Z,84.01
2023-12-02T20:41:15.019Z,84.03
2023-12-02T20:42:17.014Z,83.59
2023-12-02T20:43:21.429Z,84.16
2023-12-02T20:44:23.273Z,84.45
2023-12-02T20:45:25.586Z,83.97
2023-12-02T20:46:27.923Z,84.28
2023-12-02T20:47:29.986Z,84.18
2023-12-02T20:48:32.671Z,84.52
2023-12-02T20:49:34.924Z,84.33
2023-12-02T20:50:37.094Z,84.51
2023-12-02T20:51:39.560Z,84.32
2023-12-02T20:52:41.638Z,84.37
2023-12-02T20:53:43.716Z,84.33
2023-12-02T20:54:45.818Z,84.37
2023-12-02T20:55:48.209Z,84.60
2023-12-02T20:56:50.337Z,84.80
2023-12-02T20:57:52.460Z,84.83
2023-12-02T20:58:54.617Z,85.37
2023-12-02T20:59:56.627Z,84.94
2023-12-02T21:00:58.913Z,84.93
2023-12-02T21:02:01.252Z,84.79
2023-12-02T21:03:03.501Z,85.13
2023-12-02T21:04:06.085Z,84.70
2023-12-02T21:05:09.384Z,84.46
2023-12-02T21:06:11.597Z,84.55
2023-12-02T21:07:13.794Z,83.92
2023-12-02T21:08:16.027Z,84.63
2023-12-02T21:09:18.258Z,84.25
2023-12-02T21:10:20.360Z,85.13
2023-12-02T21:11:22.777Z,84.87
2023-12-02T21:12:26.252Z,84.54
2023-12-02T21:13:29.584Z,85.21
2023-12-02T21:14:31.556Z,84.89
2023-12-02T21:15:42.696Z,84.89
2023-12-02T21:16:46.568Z,84.76
2023-12-02T21:17:49.080Z,85.28
2023-12-02T21:18:51.897Z,85.42
2023-12-02T21:19:54.221Z,85.24
2023-12-02T21:20:56.363Z,85.23
2023-12-02T21:21:58.650Z,84.82
2023-12-02T21:23:01.386Z,85.23
2023-12-02T21:24:03.561Z,84.33
2023-12-02T21:25:06.088Z,84.78
2023-12-02T21:26:08.485Z,84.94
2023-12-02T21:27:12.083Z,84.08
2023-12-02T21:28:14.173Z,84.86
2023-12-02T21:29:16.193Z,84.44
2023-12-02T21:30:29.222Z,84.15
2023-12-02T21:31:35.018Z,84.54
2023-12-02T21:32:37.531Z,84.38
2023-12-02T21:33:39.780Z,84.50
2023-12-02T21:34:42.021Z,84.33
2023-12-02T21:35:55.515Z,84.23
2023-12-02T21:37:01.071Z,83.90
2023-12-02T21:38:18.139Z,84.08
2023-12-02T21:39:22.897Z,84.10
2023-12-02T21:40:30.993Z,83.82
2023-12-02T21:41:33.451Z,84.07